sensor_id;sensor_type;location;lat;lon;timestamp;P1;durP1;ratioP1;P2;durP2;ratioP2
32501;SDS011;18952;52.516;13.460;2023-09-30T00:01:12;3.90;;;1.48;;
32501;SDS011;18952;52.516;13.460;2023-09-30T00:03:39;6.78;;;1.45;;
32501;SDS011;18952;52.516;13.460;2023-09-30T00:06:06;4.55;;;1.45;;
32501;SDS011;18952;52.516;13.460;2023-09-30T00:08:33;7.53;;;2.00;;
32501;SDS011;18952;52.516;13.460;2023-09-30T00:11:00;5.57;;;1.58;;
32501;SDS011;18952;52.516;13.460;2023-09-30T00:13:26;6.60;;;2.00;;
32501;SDS011;18952;52.516;13.460;2023-09-30T00:15:53;5.22;;;1.85;;
32501;SDS011;18952;52.516;13.460;2023-09-30T00:18:20;7.90;;;2.45;;
32501;SDS011;18952;52.516;13.460;2023-09-30T00:20:47;15.05;;;3.03;;
32501;SDS011;18952;52.516;13.460;2023-09-30T00:23:14;6.90;;;2.83;;
32501;SDS011;18952;52.516;13.460;2023-09-30T00:25:41;11.45;;;2.75;;
32501;SDS011;18952;52.516;13.460;2023-09-30T00:28:08;10.70;;;2.83;;
32501;SDS011;18952;52.516;13.460;2023-09-30T00:30:35;7.13;;;2.70;;
32501;SDS011;18952;52.516;13.460;2023-09-30T00:33:02;13.52;;;2.88;;
32501;SDS011;18952;52.516;13.460;2023-09-30T00:35:31;8.65;;;3.10;;
32501;SDS011;18952;52.516;13.460;2023-09-30T00:37:58;9.80;;;3.50;;
32501;SDS011;18952;52.516;13.460;2023-09-30T00:40:25;15.85;;;3.38;;
32501;SDS011;18952;52.516;13.460;2023-09-30T00:42:53;10.68;;;3.17;;
32501;SDS011;18952;52.516;13.460;2023-09-30T00:45:19;9.65;;;3.50;;
32501;SDS011;18952;52.516;13.460;2023-09-30T00:47:46;14.55;;;3.75;;
32501;SDS011;18952;52.516;13.460;2023-09-30T00:50:13;15.00;;;3.95;;
32501;SDS011;18952;52.516;13.460;2023-09-30T00:52:40;7.07;;;3.35;;
32501;SDS011;18952;52.516;13.460;2023-09-30T00:55:08;13.85;;;3.72;;
32501;SDS011;18952;52.516;13.460;2023-09-30T00:57:35;13.70;;;3.72;;
32501;SDS011;18952;52.516;13.460;2023-09-30T01:00:03;11.05;;;3.33;;
32501;SDS011;18952;52.516;13.460;2023-09-30T01:02:31;11.45;;;3.20;;
32501;SDS011;18952;52.516;13.460;2023-09-30T01:04:58;10.18;;;3.78;;
32501;SDS011;18952;52.516;13.460;2023-09-30T01:07:25;11.07;;;3.80;;
32501;SDS011;18952;52.516;13.460;2023-09-30T01:09:52;14.90;;;3.95;;
32501;SDS011;18952;52.516;13.460;2023-09-30T01:12:19;14.35;;;4.53;;
32501;SDS011;18952;52.516;13.460;2023-09-30T01:14:45;14.88;;;4.55;;
32501;SDS011;18952;52.516;13.460;2023-09-30T01:17:12;12.88;;;3.88;;
32501;SDS011;18952;52.516;13.460;2023-09-30T01:19:39;18.75;;;4.40;;
32501;SDS011;18952;52.516;13.460;2023-09-30T01:22:06;13.10;;;3.70;;
32501;SDS011;18952;52.516;13.460;2023-09-30T01:24:40;16.30;;;4.15;;
32501;SDS011;18952;52.516;13.460;2023-09-30T01:27:08;11.98;;;4.10;;
32501;SDS011;18952;52.516;13.460;2023-09-30T01:29:35;20.23;;;4.82;;
32501;SDS011;18952;52.516;13.460;2023-09-30T01:32:02;12.50;;;4.32;;
32501;SDS011;18952;52.516;13.460;2023-09-30T01:34:29;17.48;;;4.38;;
32501;SDS011;18952;52.516;13.460;2023-09-30T01:36:56;16.17;;;4.30;;
32501;SDS011;18952;52.516;13.460;2023-09-30T01:39:23;12.48;;;3.88;;
32501;SDS011;18952;52.516;13.460;2023-09-30T01:41:49;15.38;;;3.75;;
32501;SDS011;18952;52.516;13.460;2023-09-30T01:44:16;12.65;;;4.15;;
32501;SDS011;18952;52.516;13.460;2023-09-30T01:46:43;17.88;;;4.70;;
32501;SDS011;18952;52.516;13.460;2023-09-30T01:49:10;15.52;;;4.32;;
32501;SDS011;18952;52.516;13.460;2023-09-30T01:51:37;17.52;;;4.45;;
32501;SDS011;18952;52.516;13.460;2023-09-30T01:54:04;14.27;;;4.20;;
32501;SDS011;18952;52.516;13.460;2023-09-30T01:56:31;13.50;;;4.40;;
32501;SDS011;18952;52.516;13.460;2023-09-30T01:58:58;14.13;;;4.82;;
32501;SDS011;18952;52.516;13.460;2023-09-30T02:01:25;17.83;;;4.90;;
32501;SDS011;18952;52.516;13.460;2023-09-30T02:03:53;13.77;;;4.35;;
32501;SDS011;18952;52.516;13.460;2023-09-30T02:06:20;19.17;;;4.68;;
32501;SDS011;18952;52.516;13.460;2023-09-30T02:08:46;14.80;;;4.20;;
32501;SDS011;18952;52.516;13.460;2023-09-30T02:11:13;12.95;;;4.70;;
32501;SDS011;18952;52.516;13.460;2023-09-30T02:13:40;13.02;;;4.72;;
32501;SDS011;18952;52.516;13.460;2023-09-30T02:16:11;19.05;;;4.45;;
32501;SDS011;18952;52.516;13.460;2023-09-30T02:18:42;16.67;;;4.47;;
32501;SDS011;18952;52.516;13.460;2023-09-30T02:21:09;15.73;;;4.78;;
32501;SDS011;18952;52.516;13.460;2023-09-30T02:23:36;18.05;;;4.75;;
32501;SDS011;18952;52.516;13.460;2023-09-30T02:26:03;15.10;;;4.22;;
32501;SDS011;18952;52.516;13.460;2023-09-30T02:28:30;17.45;;;4.47;;
32501;SDS011;18952;52.516;13.460;2023-09-30T02:30:56;23.15;;;5.18;;
32501;SDS011;18952;52.516;13.460;2023-09-30T02:33:24;18.92;;;5.05;;
32501;SDS011;18952;52.516;13.460;2023-09-30T02:35:51;20.20;;;5.00;;
32501;SDS011;18952;52.516;13.460;2023-09-30T02:38:18;22.75;;;5.38;;
32501;SDS011;18952;52.516;13.460;2023-09-30T02:40:44;14.88;;;4.78;;
32501;SDS011;18952;52.516;13.460;2023-09-30T02:43:12;16.42;;;4.68;;
32501;SDS011;18952;52.516;13.460;2023-09-30T02:45:38;13.98;;;4.53;;
32501;SDS011;18952;52.516;13.460;2023-09-30T02:48:05;18.27;;;4.65;;
32501;SDS011;18952;52.516;13.460;2023-09-30T02:50:32;16.15;;;4.53;;
32501;SDS011;18952;52.516;13.460;2023-09-30T02:52:59;15.02;;;4.90;;
32501;SDS011;18952;52.516;13.460;2023-09-30T02:55:26;25.30;;;5.50;;
32501;SDS011;18952;52.516;13.460;2023-09-30T02:57:53;24.98;;;5.28;;
32501;SDS011;18952;52.516;13.460;2023-09-30T03:00:21;18.50;;;4.82;;
32501;SDS011;18952;52.516;13.460;2023-09-30T03:02:52;18.92;;;5.63;;
32501;SDS011;18952;52.516;13.460;2023-09-30T03:05:20;19.50;;;4.57;;
32501;SDS011;18952;52.516;13.460;2023-09-30T03:07:47;18.52;;;5.53;;
32501;SDS011;18952;52.516;13.460;2023-09-30T03:10:14;15.70;;;5.10;;
32501;SDS011;18952;52.516;13.460;2023-09-30T03:12:41;14.13;;;5.55;;
32501;SDS011;18952;52.516;13.460;2023-09-30T03:15:08;17.25;;;5.10;;
32501;SDS011;18952;52.516;13.460;2023-09-30T03:17:35;19.92;;;4.93;;
32501;SDS011;18952;52.516;13.460;2023-09-30T03:20:02;19.50;;;5.25;;
32501;SDS011;18952;52.516;13.460;2023-09-30T03:22:29;17.40;;;5.47;;
32501;SDS011;18952;52.516;13.460;2023-09-30T03:24:56;13.27;;;4.95;;
32501;SDS011;18952;52.516;13.460;2023-09-30T03:27:22;14.48;;;5.10;;
32501;SDS011;18952;52.516;13.460;2023-09-30T03:29:49;21.75;;;5.43;;
32501;SDS011;18952;52.516;13.460;2023-09-30T03:32:16;21.23;;;5.68;;
32501;SDS011;18952;52.516;13.460;2023-09-30T03:34:43;20.00;;;5.50;;
32501;SDS011;18952;52.516;13.460;2023-09-30T03:37:10;20.92;;;5.97;;
32501;SDS011;18952;52.516;13.460;2023-09-30T03:39:37;30.25;;;6.25;;
32501;SDS011;18952;52.516;13.460;2023-09-30T03:42:04;19.17;;;5.43;;
32501;SDS011;18952;52.516;13.460;2023-09-30T03:44:31;21.20;;;5.57;;
32501;SDS011;18952;52.516;13.460;2023-09-30T03:46:57;21.13;;;6.00;;
32501;SDS011;18952;52.516;13.460;2023-09-30T03:49:24;15.40;;;5.43;;
32501;SDS011;18952;52.516;13.460;2023-09-30T03:51:52;21.77;;;5.78;;
32501;SDS011;18952;52.516;13.460;2023-09-30T03:54:18;22.02;;;6.20;;
32501;SDS011;18952;52.516;13.460;2023-09-30T03:56:45;18.50;;;5.47;;
32501;SDS011;18952;52.516;13.460;2023-09-30T03:59:13;22.63;;;6.18;;
32501;SDS011;18952;52.516;13.460;2023-09-30T04:01:40;21.33;;;6.70;;
32501;SDS011;18952;52.516;13.460;2023-09-30T04:04:07;20.20;;;5.97;;
32501;SDS011;18952;52.516;13.460;2023-09-30T04:06:34;17.17;;;5.93;;
32501;SDS011;18952;52.516;13.460;2023-09-30T04:09:01;21.92;;;5.72;;
32501;SDS011;18952;52.516;13.460;2023-09-30T04:11:28;18.92;;;6.25;;
32501;SDS011;18952;52.516;13.460;2023-09-30T04:13:55;20.88;;;5.68;;
32501;SDS011;18952;52.516;13.460;2023-09-30T04:16:23;17.45;;;5.70;;
32501;SDS011;18952;52.516;13.460;2023-09-30T04:18:49;20.55;;;5.72;;
32501;SDS011;18952;52.516;13.460;2023-09-30T04:21:16;17.10;;;5.50;;
32501;SDS011;18952;52.516;13.460;2023-09-30T04:23:43;17.42;;;5.60;;
32501;SDS011;18952;52.516;13.460;2023-09-30T04:26:10;20.60;;;5.97;;
32501;SDS011;18952;52.516;13.460;2023-09-30T04:28:37;21.80;;;5.90;;
32501;SDS011;18952;52.516;13.460;2023-09-30T04:31:04;28.25;;;7.13;;
32501;SDS011;18952;52.516;13.460;2023-09-30T04:33:31;28.40;;;6.18;;
32501;SDS011;18952;52.516;13.460;2023-09-30T04:35:58;15.35;;;5.90;;
32501;SDS011;18952;52.516;13.460;2023-09-30T04:38:24;26.15;;;6.20;;
32501;SDS011;18952;52.516;13.460;2023-09-30T04:40:51;21.98;;;5.85;;
32501;SDS011;18952;52.516;13.460;2023-09-30T04:43:18;21.98;;;6.30;;
32501;SDS011;18952;52.516;13.460;2023-09-30T04:45:45;22.77;;;6.07;;
32501;SDS011;18952;52.516;13.460;2023-09-30T04:48:12;23.23;;;6.25;;
32501;SDS011;18952;52.516;13.460;2023-09-30T04:50:39;18.90;;;5.85;;
32501;SDS011;18952;52.516;13.460;2023-09-30T04:53:06;21.60;;;5.97;;
32501;SDS011;18952;52.516;13.460;2023-09-30T04:55:33;19.30;;;6.03;;
32501;SDS011;18952;52.516;13.460;2023-09-30T04:58:00;20.02;;;6.68;;
32501;SDS011;18952;52.516;13.460;2023-09-30T05:00:26;20.88;;;6.43;;
32501;SDS011;18952;52.516;13.460;2023-09-30T05:02:55;24.27;;;6.45;;
32501;SDS011;18952;52.516;13.460;2023-09-30T05:05:23;22.58;;;6.57;;
32501;SDS011;18952;52.516;13.460;2023-09-30T05:07:49;25.38;;;6.80;;
32501;SDS011;18952;52.516;13.460;2023-09-30T05:10:16;20.95;;;6.22;;
32501;SDS011;18952;52.516;13.460;2023-09-30T05:12:43;25.80;;;6.20;;
32501;SDS011;18952;52.516;13.460;2023-09-30T05:15:11;18.88;;;5.43;;
32501;SDS011;18952;52.516;13.460;2023-09-30T05:17:39;16.92;;;5.97;;
32501;SDS011;18952;52.516;13.460;2023-09-30T05:20:06;34.25;;;6.90;;
32501;SDS011;18952;52.516;13.460;2023-09-30T05:22:33;22.65;;;5.60;;
32501;SDS011;18952;52.516;13.460;2023-09-30T05:25:00;22.13;;;6.30;;
32501;SDS011;18952;52.516;13.460;2023-09-30T05:27:27;20.80;;;6.38;;
32501;SDS011;18952;52.516;13.460;2023-09-30T05:29:54;21.10;;;6.40;;
32501;SDS011;18952;52.516;13.460;2023-09-30T05:32:21;23.38;;;6.57;;
32501;SDS011;18952;52.516;13.460;2023-09-30T05:34:48;16.35;;;5.55;;
32501;SDS011;18952;52.516;13.460;2023-09-30T05:37:15;17.50;;;6.07;;
32501;SDS011;18952;52.516;13.460;2023-09-30T05:39:42;24.30;;;6.35;;
32501;SDS011;18952;52.516;13.460;2023-09-30T05:42:09;31.13;;;6.68;;
32501;SDS011;18952;52.516;13.460;2023-09-30T05:44:36;22.90;;;6.60;;
32501;SDS011;18952;52.516;13.460;2023-09-30T05:47:03;22.75;;;6.78;;
32501;SDS011;18952;52.516;13.460;2023-09-30T05:49:30;20.58;;;6.20;;
32501;SDS011;18952;52.516;13.460;2023-09-30T05:51:56;26.50;;;6.38;;
32501;SDS011;18952;52.516;13.460;2023-09-30T05:54:23;26.83;;;6.97;;
32501;SDS011;18952;52.516;13.460;2023-09-30T05:56:50;23.42;;;6.25;;
32501;SDS011;18952;52.516;13.460;2023-09-30T05:59:17;25.75;;;6.00;;
32501;SDS011;18952;52.516;13.460;2023-09-30T06:01:44;18.75;;;6.07;;
32501;SDS011;18952;52.516;13.460;2023-09-30T06:04:10;21.05;;;6.38;;
32501;SDS011;18952;52.516;13.460;2023-09-30T06:06:38;17.52;;;6.18;;
32501;SDS011;18952;52.516;13.460;2023-09-30T06:09:05;22.42;;;6.25;;
32501;SDS011;18952;52.516;13.460;2023-09-30T06:11:31;23.98;;;5.55;;
32501;SDS011;18952;52.516;13.460;2023-09-30T06:13:58;21.65;;;5.88;;
32501;SDS011;18952;52.516;13.460;2023-09-30T06:16:27;21.65;;;6.18;;
32501;SDS011;18952;52.516;13.460;2023-09-30T06:18:54;18.02;;;5.55;;
32501;SDS011;18952;52.516;13.460;2023-09-30T06:21:23;26.20;;;6.63;;
32501;SDS011;18952;52.516;13.460;2023-09-30T06:23:52;22.60;;;6.40;;
32501;SDS011;18952;52.516;13.460;2023-09-30T06:26:19;17.35;;;6.15;;
32501;SDS011;18952;52.516;13.460;2023-09-30T06:28:46;22.75;;;6.70;;
32501;SDS011;18952;52.516;13.460;2023-09-30T06:31:13;23.65;;;6.25;;
32501;SDS011;18952;52.516;13.460;2023-09-30T06:33:41;21.70;;;6.13;;
32501;SDS011;18952;52.516;13.460;2023-09-30T06:36:11;23.23;;;5.53;;
32501;SDS011;18952;52.516;13.460;2023-09-30T06:38:39;22.50;;;6.00;;
32501;SDS011;18952;52.516;13.460;2023-09-30T06:41:06;21.02;;;6.13;;
32501;SDS011;18952;52.516;13.460;2023-09-30T06:43:33;24.27;;;6.57;;
32501;SDS011;18952;52.516;13.460;2023-09-30T06:46:07;24.27;;;6.30;;
32501;SDS011;18952;52.516;13.460;2023-09-30T06:48:35;19.17;;;5.72;;
32501;SDS011;18952;52.516;13.460;2023-09-30T06:51:02;23.17;;;6.03;;
32501;SDS011;18952;52.516;13.460;2023-09-30T06:53:30;17.23;;;5.68;;
32501;SDS011;18952;52.516;13.460;2023-09-30T06:55:56;23.27;;;6.43;;
32501;SDS011;18952;52.516;13.460;2023-09-30T06:58:24;20.90;;;6.00;;
32501;SDS011;18952;52.516;13.460;2023-09-30T07:00:51;28.83;;;5.68;;
32501;SDS011;18952;52.516;13.460;2023-09-30T07:03:18;21.73;;;5.57;;
32501;SDS011;18952;52.516;13.460;2023-09-30T07:05:50;15.95;;;5.13;;
32501;SDS011;18952;52.516;13.460;2023-09-30T07:08:17;25.25;;;6.00;;
32501;SDS011;18952;52.516;13.460;2023-09-30T07:10:44;25.25;;;5.53;;
32501;SDS011;18952;52.516;13.460;2023-09-30T07:13:11;19.35;;;6.15;;
32501;SDS011;18952;52.516;13.460;2023-09-30T07:15:38;17.15;;;5.90;;
32501;SDS011;18952;52.516;13.460;2023-09-30T07:18:06;19.50;;;5.60;;
32501;SDS011;18952;52.516;13.460;2023-09-30T07:20:33;23.10;;;5.80;;
32501;SDS011;18952;52.516;13.460;2023-09-30T07:23:00;14.13;;;5.13;;
32501;SDS011;18952;52.516;13.460;2023-09-30T07:25:43;15.70;;;5.57;;
32501;SDS011;18952;52.516;13.460;2023-09-30T07:28:10;22.80;;;6.18;;
32501;SDS011;18952;52.516;13.460;2023-09-30T07:30:38;17.00;;;5.47;;
32501;SDS011;18952;52.516;13.460;2023-09-30T07:33:05;20.80;;;5.75;;
32501;SDS011;18952;52.516;13.460;2023-09-30T07:35:33;23.75;;;5.65;;
32501;SDS011;18952;52.516;13.460;2023-09-30T07:37:59;17.50;;;5.40;;
32501;SDS011;18952;52.516;13.460;2023-09-30T07:40:27;16.88;;;5.38;;
32501;SDS011;18952;52.516;13.460;2023-09-30T07:42:54;11.88;;;5.18;;
32501;SDS011;18952;52.516;13.460;2023-09-30T07:45:23;25.98;;;6.30;;
32501;SDS011;18952;52.516;13.460;2023-09-30T07:47:50;24.30;;;5.78;;
32501;SDS011;18952;52.516;13.460;2023-09-30T07:50:16;19.60;;;5.68;;
32501;SDS011;18952;52.516;13.460;2023-09-30T07:52:43;18.88;;;5.15;;
32501;SDS011;18952;52.516;13.460;2023-09-30T07:55:10;25.73;;;6.22;;
32501;SDS011;18952;52.516;13.460;2023-09-30T07:57:39;20.73;;;6.60;;
32501;SDS011;18952;52.516;13.460;2023-09-30T08:00:07;17.15;;;5.93;;
32501;SDS011;18952;52.516;13.460;2023-09-30T08:02:35;27.67;;;5.65;;
32501;SDS011;18952;52.516;13.460;2023-09-30T08:05:02;25.02;;;6.00;;
32501;SDS011;18952;52.516;13.460;2023-09-30T08:07:29;19.08;;;6.00;;
32501;SDS011;18952;52.516;13.460;2023-09-30T08:09:56;19.98;;;5.68;;
32501;SDS011;18952;52.516;13.460;2023-09-30T08:12:23;20.38;;;5.70;;
32501;SDS011;18952;52.516;13.460;2023-09-30T08:14:50;23.05;;;5.97;;
32501;SDS011;18952;52.516;13.460;2023-09-30T08:17:17;24.30;;;5.80;;
32501;SDS011;18952;52.516;13.460;2023-09-30T08:19:44;19.50;;;5.68;;
32501;SDS011;18952;52.516;13.460;2023-09-30T08:22:11;22.23;;;5.10;;
32501;SDS011;18952;52.516;13.460;2023-09-30T08:24:37;21.20;;;5.93;;
32501;SDS011;18952;52.516;13.460;2023-09-30T08:27:04;22.10;;;5.65;;
32501;SDS011;18952;52.516;13.460;2023-09-30T08:29:34;24.60;;;6.05;;
32501;SDS011;18952;52.516;13.460;2023-09-30T08:32:02;25.33;;;5.25;;
32501;SDS011;18952;52.516;13.460;2023-09-30T08:34:29;16.80;;;4.85;;
32501;SDS011;18952;52.516;13.460;2023-09-30T08:36:56;22.55;;;5.18;;
32501;SDS011;18952;52.516;13.460;2023-09-30T08:39:24;17.08;;;5.25;;
32501;SDS011;18952;52.516;13.460;2023-09-30T08:41:51;25.13;;;5.10;;
32501;SDS011;18952;52.516;13.460;2023-09-30T08:44:20;26.02;;;5.20;;
32501;SDS011;18952;52.516;13.460;2023-09-30T08:46:47;15.50;;;5.47;;
32501;SDS011;18952;52.516;13.460;2023-09-30T08:49:15;20.42;;;5.15;;
32501;SDS011;18952;52.516;13.460;2023-09-30T08:51:42;18.65;;;4.85;;
32501;SDS011;18952;52.516;13.460;2023-09-30T08:54:09;16.35;;;5.18;;
32501;SDS011;18952;52.516;13.460;2023-09-30T08:56:36;16.45;;;5.07;;
32501;SDS011;18952;52.516;13.460;2023-09-30T08:59:07;21.15;;;5.05;;
32501;SDS011;18952;52.516;13.460;2023-09-30T09:01:36;19.33;;;5.50;;
32501;SDS011;18952;52.516;13.460;2023-09-30T09:04:04;17.50;;;5.30;;
32501;SDS011;18952;52.516;13.460;2023-09-30T09:06:33;16.88;;;4.75;;
32501;SDS011;18952;52.516;13.460;2023-09-30T09:09:12;15.65;;;4.88;;
32501;SDS011;18952;52.516;13.460;2023-09-30T09:11:40;18.88;;;5.00;;
32501;SDS011;18952;52.516;13.460;2023-09-30T09:14:07;17.85;;;4.88;;
32501;SDS011;18952;52.516;13.460;2023-09-30T09:16:33;24.02;;;4.90;;
32501;SDS011;18952;52.516;13.460;2023-09-30T09:19:22;18.52;;;4.93;;
32501;SDS011;18952;52.516;13.460;2023-09-30T09:21:54;18.10;;;4.65;;
32501;SDS011;18952;52.516;13.460;2023-09-30T09:24:29;13.95;;;4.57;;
32501;SDS011;18952;52.516;13.460;2023-09-30T09:27:07;16.90;;;4.85;;
32501;SDS011;18952;52.516;13.460;2023-09-30T09:29:38;20.17;;;5.18;;
32501;SDS011;18952;52.516;13.460;2023-09-30T09:32:09;18.13;;;5.00;;
32501;SDS011;18952;52.516;13.460;2023-09-30T09:34:38;25.20;;;4.90;;
32501;SDS011;18952;52.516;13.460;2023-09-30T09:37:21;21.85;;;4.97;;
32501;SDS011;18952;52.516;13.460;2023-09-30T09:39:55;14.48;;;4.32;;
32501;SDS011;18952;52.516;13.460;2023-09-30T09:44:52;19.73;;;4.30;;
32501;SDS011;18952;52.516;13.460;2023-09-30T09:47:22;15.65;;;4.35;;
32501;SDS011;18952;52.516;13.460;2023-09-30T09:49:50;24.27;;;5.05;;
32501;SDS011;18952;52.516;13.460;2023-09-30T09:52:18;22.23;;;4.75;;
32501;SDS011;18952;52.516;13.460;2023-09-30T09:54:46;19.10;;;4.82;;
32501;SDS011;18952;52.516;13.460;2023-09-30T09:57:13;14.52;;;4.18;;
32501;SDS011;18952;52.516;13.460;2023-09-30T09:59:42;42.60;;;4.85;;
32501;SDS011;18952;52.516;13.460;2023-09-30T10:02:10;18.17;;;4.35;;
32501;SDS011;18952;52.516;13.460;2023-09-30T10:04:38;19.88;;;3.75;;
32501;SDS011;18952;52.516;13.460;2023-09-30T10:07:05;18.63;;;3.65;;
32501;SDS011;18952;52.516;13.460;2023-09-30T10:09:34;21.05;;;4.25;;
32501;SDS011;18952;52.516;13.460;2023-09-30T10:12:01;20.23;;;3.83;;
32501;SDS011;18952;52.516;13.460;2023-09-30T10:14:32;20.05;;;4.22;;
32501;SDS011;18952;52.516;13.460;2023-09-30T10:17:00;23.58;;;4.53;;
32501;SDS011;18952;52.516;13.460;2023-09-30T10:19:27;15.35;;;3.88;;
32501;SDS011;18952;52.516;13.460;2023-09-30T10:24:42;15.15;;;3.78;;
32501;SDS011;18952;52.516;13.460;2023-09-30T10:35:19;24.10;;;4.13;;
32501;SDS011;18952;52.516;13.460;2023-09-30T10:37:47;16.45;;;3.38;;
32501;SDS011;18952;52.516;13.460;2023-09-30T10:40:30;15.05;;;3.55;;
32501;SDS011;18952;52.516;13.460;2023-09-30T10:42:57;19.88;;;3.42;;
32501;SDS011;18952;52.516;13.460;2023-09-30T10:51:12;15.82;;;3.88;;
32501;SDS011;18952;52.516;13.460;2023-09-30T10:53:41;11.57;;;3.78;;
32501;SDS011;18952;52.516;13.460;2023-09-30T10:56:09;19.92;;;4.03;;
32501;SDS011;18952;52.516;13.460;2023-09-30T11:01:17;15.65;;;3.28;;
32501;SDS011;18952;52.516;13.460;2023-09-30T11:03:46;13.13;;;3.53;;
32501;SDS011;18952;52.516;13.460;2023-09-30T11:06:14;17.33;;;3.63;;
32501;SDS011;18952;52.516;13.460;2023-09-30T11:08:45;13.95;;;3.85;;
32501;SDS011;18952;52.516;13.460;2023-09-30T11:11:35;12.68;;;3.67;;
32501;SDS011;18952;52.516;13.460;2023-09-30T11:14:03;22.13;;;3.58;;
32501;SDS011;18952;52.516;13.460;2023-09-30T11:16:43;9.40;;;3.03;;
32501;SDS011;18952;52.516;13.460;2023-09-30T11:19:10;10.30;;;3.08;;
32501;SDS011;18952;52.516;13.460;2023-09-30T11:21:41;14.15;;;3.45;;
32501;SDS011;18952;52.516;13.460;2023-09-30T11:24:09;12.18;;;3.70;;
32501;SDS011;18952;52.516;13.460;2023-09-30T11:26:36;14.07;;;4.05;;
32501;SDS011;18952;52.516;13.460;2023-09-30T11:31:39;10.45;;;2.90;;
32501;SDS011;18952;52.516;13.460;2023-09-30T11:34:07;12.38;;;3.47;;
32501;SDS011;18952;52.516;13.460;2023-09-30T11:36:35;10.45;;;3.78;;
32501;SDS011;18952;52.516;13.460;2023-09-30T11:39:02;11.77;;;3.40;;
32501;SDS011;18952;52.516;13.460;2023-09-30T11:41:41;9.60;;;3.35;;
32501;SDS011;18952;52.516;13.460;2023-09-30T11:44:09;12.98;;;3.30;;
32501;SDS011;18952;52.516;13.460;2023-09-30T11:46:52;13.75;;;3.70;;
32501;SDS011;18952;52.516;13.460;2023-09-30T11:49:26;22.10;;;3.95;;
32501;SDS011;18952;52.516;13.460;2023-09-30T11:52:07;12.77;;;3.90;;
32501;SDS011;18952;52.516;13.460;2023-09-30T11:54:40;16.65;;;3.65;;
32501;SDS011;18952;52.516;13.460;2023-09-30T11:57:08;22.58;;;3.50;;
32501;SDS011;18952;52.516;13.460;2023-09-30T11:59:37;17.30;;;3.70;;
32501;SDS011;18952;52.516;13.460;2023-09-30T12:02:04;9.75;;;3.35;;
32501;SDS011;18952;52.516;13.460;2023-09-30T12:07:08;10.45;;;3.45;;
32501;SDS011;18952;52.516;13.460;2023-09-30T12:09:36;14.68;;;3.55;;
32501;SDS011;18952;52.516;13.460;2023-09-30T12:12:03;14.00;;;3.30;;
32501;SDS011;18952;52.516;13.460;2023-09-30T12:14:31;13.52;;;2.90;;
32501;SDS011;18952;52.516;13.460;2023-09-30T12:16:58;17.42;;;3.75;;
32501;SDS011;18952;52.516;13.460;2023-09-30T12:19:27;17.50;;;3.55;;
32501;SDS011;18952;52.516;13.460;2023-09-30T12:21:54;8.35;;;2.83;;
32501;SDS011;18952;52.516;13.460;2023-09-30T12:24:21;19.08;;;3.53;;
32501;SDS011;18952;52.516;13.460;2023-09-30T12:26:49;18.77;;;3.13;;
32501;SDS011;18952;52.516;13.460;2023-09-30T12:29:17;17.33;;;3.40;;
32501;SDS011;18952;52.516;13.460;2023-09-30T12:31:45;9.82;;;3.10;;
32501;SDS011;18952;52.516;13.460;2023-09-30T12:34:19;15.98;;;3.72;;
32501;SDS011;18952;52.516;13.460;2023-09-30T12:36:46;9.63;;;2.97;;
32501;SDS011;18952;52.516;13.460;2023-09-30T12:39:13;8.00;;;2.92;;
32501;SDS011;18952;52.516;13.460;2023-09-30T12:41:41;14.68;;;3.42;;
32501;SDS011;18952;52.516;13.460;2023-09-30T12:44:11;17.42;;;3.28;;
32501;SDS011;18952;52.516;13.460;2023-09-30T12:46:38;16.67;;;3.70;;
32501;SDS011;18952;52.516;13.460;2023-09-30T12:49:05;14.40;;;3.60;;
32501;SDS011;18952;52.516;13.460;2023-09-30T12:51:33;10.63;;;3.17;;
32501;SDS011;18952;52.516;13.460;2023-09-30T12:54:01;19.33;;;3.30;;
32501;SDS011;18952;52.516;13.460;2023-09-30T12:56:29;9.48;;;2.63;;
32501;SDS011;18952;52.516;13.460;2023-09-30T12:58:56;17.60;;;3.33;;
32501;SDS011;18952;52.516;13.460;2023-09-30T13:01:24;17.38;;;3.25;;
32501;SDS011;18952;52.516;13.460;2023-09-30T13:03:52;18.73;;;3.33;;
32501;SDS011;18952;52.516;13.460;2023-09-30T13:06:19;14.15;;;3.00;;
32501;SDS011;18952;52.516;13.460;2023-09-30T13:08:46;8.40;;;2.58;;
32501;SDS011;18952;52.516;13.460;2023-09-30T13:11:13;16.63;;;2.47;;
32501;SDS011;18952;52.516;13.460;2023-09-30T13:13:40;9.13;;;2.70;;
32501;SDS011;18952;52.516;13.460;2023-09-30T13:16:09;11.40;;;3.00;;
32501;SDS011;18952;52.516;13.460;2023-09-30T13:18:38;7.30;;;2.60;;
32501;SDS011;18952;52.516;13.460;2023-09-30T13:21:05;12.30;;;2.90;;
32501;SDS011;18952;52.516;13.460;2023-09-30T13:23:33;7.25;;;2.25;;
32501;SDS011;18952;52.516;13.460;2023-09-30T13:26:00;15.63;;;2.42;;
32501;SDS011;18952;52.516;13.460;2023-09-30T13:28:28;9.18;;;2.78;;
32501;SDS011;18952;52.516;13.460;2023-09-30T13:30:55;10.00;;;2.22;;
32501;SDS011;18952;52.516;13.460;2023-09-30T13:33:22;9.52;;;2.72;;
32501;SDS011;18952;52.516;13.460;2023-09-30T13:35:49;10.48;;;2.58;;
32501;SDS011;18952;52.516;13.460;2023-09-30T13:38:15;29.23;;;2.97;;
32501;SDS011;18952;52.516;13.460;2023-09-30T13:40:43;10.52;;;2.88;;
32501;SDS011;18952;52.516;13.460;2023-09-30T13:43:09;7.65;;;2.55;;
32501;SDS011;18952;52.516;13.460;2023-09-30T13:45:36;8.75;;;2.65;;
32501;SDS011;18952;52.516;13.460;2023-09-30T13:48:04;11.77;;;2.63;;
32501;SDS011;18952;52.516;13.460;2023-09-30T13:50:31;6.75;;;2.38;;
32501;SDS011;18952;52.516;13.460;2023-09-30T13:52:58;9.35;;;2.58;;
32501;SDS011;18952;52.516;13.460;2023-09-30T13:55:25;10.38;;;2.40;;
32501;SDS011;18952;52.516;13.460;2023-09-30T13:57:52;8.15;;;2.47;;
32501;SDS011;18952;52.516;13.460;2023-09-30T14:00:18;5.50;;;2.38;;
32501;SDS011;18952;52.516;13.460;2023-09-30T14:02:45;9.70;;;2.25;;
32501;SDS011;18952;52.516;13.460;2023-09-30T14:05:12;12.27;;;2.50;;
32501;SDS011;18952;52.516;13.460;2023-09-30T14:07:39;12.43;;;2.63;;
32501;SDS011;18952;52.516;13.460;2023-09-30T14:10:07;7.38;;;2.40;;
32501;SDS011;18952;52.516;13.460;2023-09-30T14:12:34;13.23;;;2.65;;
32501;SDS011;18952;52.516;13.460;2023-09-30T14:15:01;15.20;;;2.75;;
32501;SDS011;18952;52.516;13.460;2023-09-30T14:17:28;8.60;;;2.35;;
32501;SDS011;18952;52.516;13.460;2023-09-30T14:19:56;9.95;;;2.85;;
32501;SDS011;18952;52.516;13.460;2023-09-30T14:22:22;12.30;;;2.40;;
32501;SDS011;18952;52.516;13.460;2023-09-30T14:24:49;6.32;;;2.25;;
32501;SDS011;18952;52.516;13.460;2023-09-30T14:27:16;9.73;;;2.53;;
32501;SDS011;18952;52.516;13.460;2023-09-30T14:29:43;13.98;;;2.80;;
32501;SDS011;18952;52.516;13.460;2023-09-30T14:32:10;9.80;;;2.55;;
32501;SDS011;18952;52.516;13.460;2023-09-30T14:34:37;6.38;;;2.15;;
32501;SDS011;18952;52.516;13.460;2023-09-30T14:37:03;9.35;;;2.17;;
32501;SDS011;18952;52.516;13.460;2023-09-30T14:39:30;6.97;;;2.13;;
32501;SDS011;18952;52.516;13.460;2023-09-30T14:41:57;8.65;;;2.17;;
32501;SDS011;18952;52.516;13.460;2023-09-30T14:44:24;6.32;;;2.08;;
32501;SDS011;18952;52.516;13.460;2023-09-30T14:46:51;14.85;;;2.40;;
32501;SDS011;18952;52.516;13.460;2023-09-30T14:49:18;7.68;;;2.22;;
32501;SDS011;18952;52.516;13.460;2023-09-30T14:51:45;12.93;;;2.55;;
32501;SDS011;18952;52.516;13.460;2023-09-30T14:54:11;7.10;;;2.20;;